createdAt,value
2018-08-20T00:01:05.382Z,23.40
2018-08-20T00:03:52.411Z,23.40
2018-08-20T00:06:44.732Z,23.30
2018-08-20T00:09:12.491Z,23.30
2018-08-20T00:11:40.229Z,23.30
2018-08-20T00:14:07.887Z,23.30
2018-08-20T00:16:35.964Z,23.20
2018-08-20T00:19:03.612Z,23.10
2018-08-20T00:21:31.323Z,23.10
2018-08-20T00:23:58.964Z,23.10
2018-08-20T00:26:27.730Z,23.10
2018-08-20T00:28:55.515Z,23.10
2018-08-20T00:31:23.532Z,23.10
2018-08-20T00:36:54.000Z,23.00
2018-08-20T00:39:21.790Z,23.00
2018-08-20T00:42:05.649Z,22.90
2018-08-20T00:44:37.335Z,22.90
2018-08-20T00:47:05.296Z,22.90
2018-08-20T00:49:33.062Z,22.80
2018-08-20T00:52:01.111Z,22.80
2018-08-20T00:54:30.536Z,22.80
2018-08-20T00:56:58.354Z,22.80
2018-08-20T00:59:26.210Z,22.80
2018-08-20T01:01:54.130Z,22.80
2018-08-20T01:04:21.875Z,22.70
2018-08-20T01:06:49.671Z,22.70
2018-08-20T01:09:38.091Z,22.70
2018-08-20T01:12:05.994Z,22.60
2018-08-20T01:14:37.621Z,22.60
2018-08-20T01:17:05.592Z,22.60
2018-08-20T01:19:33.478Z,22.60
2018-08-20T01:28:35.481Z,22.50
2018-08-20T01:34:07.529Z,22.30
2018-08-20T01:36:36.382Z,22.30
2018-08-20T01:39:06.484Z,22.30
2018-08-20T01:41:34.379Z,22.20
2018-08-20T01:44:03.020Z,22.20
2018-08-20T01:46:30.812Z,22.20
2018-08-20T01:48:58.794Z,22.20
2018-08-20T01:51:26.834Z,22.20
2018-08-20T01:53:54.697Z,22.20
2018-08-20T01:56:22.929Z,22.20
2018-08-20T01:58:50.675Z,22.10
2018-08-20T02:01:32.042Z,22.10
2018-08-20T02:04:06.304Z,22.10
2018-08-20T02:06:35.056Z,22.10
2018-08-20T02:09:04.701Z,22.10
2018-08-20T02:11:32.655Z,22.00
2018-08-20T02:14:00.473Z,22.00
2018-08-20T02:16:28.311Z,22.00
2018-08-20T02:18:56.032Z,22.00
2018-08-20T02:21:23.762Z,22.00
2018-08-20T02:23:51.731Z,21.90
2018-08-20T02:26:19.497Z,21.90
2018-08-20T02:28:47.200Z,21.80
2018-08-20T02:31:20.317Z,21.80
2018-08-20T02:33:47.872Z,21.90
2018-08-20T02:36:15.636Z,21.80
2018-08-20T02:38:43.382Z,21.80
2018-08-20T02:44:14.374Z,21.70
2018-08-20T02:46:48.441Z,21.70
2018-08-20T02:49:16.782Z,21.70
2018-08-20T02:51:45.087Z,21.70
2018-08-20T02:54:13.169Z,21.60
2018-08-20T02:57:04.878Z,21.70
2018-08-20T02:59:38.412Z,21.70
2018-08-20T03:02:14.157Z,21.70
2018-08-20T03:04:41.961Z,21.60
2018-08-20T03:07:09.782Z,21.50
2018-08-20T03:09:37.504Z,21.50
2018-08-20T03:12:14.907Z,21.50
2018-08-20T03:14:42.573Z,21.50
2018-08-20T03:17:10.194Z,21.40
2018-08-20T03:19:50.755Z,21.40
2018-08-20T03:22:27.967Z,21.40
2018-08-20T03:24:55.602Z,21.30
2018-08-20T03:27:23.510Z,21.40
2018-08-20T03:29:51.203Z,21.30
2018-08-20T03:32:18.975Z,21.30
2018-08-20T03:34:46.886Z,21.30
2018-08-20T03:40:18.286Z,21.30
2018-08-20T03:42:46.649Z,21.30
2018-08-20T03:45:14.421Z,21.30
2018-08-20T03:47:42.273Z,21.20
2018-08-20T03:50:12.304Z,21.20
2018-08-20T04:01:38.389Z,21.20
2018-08-20T04:04:06.500Z,21.10
2018-08-20T04:06:34.225Z,21.10
2018-08-20T04:09:08.103Z,21.10
2018-08-20T04:11:36.019Z,21.00
2018-08-20T04:29:04.723Z,21.00
2018-08-20T04:34:35.127Z,20.80
2018-08-20T04:37:02.806Z,20.80
2018-08-20T04:39:30.527Z,20.80
2018-08-20T04:41:58.316Z,20.80
2018-08-20T04:44:38.174Z,20.80
2018-08-20T04:47:06.806Z,20.80
2018-08-20T04:49:38.637Z,20.80
2018-08-20T04:52:06.754Z,20.80
2018-08-20T04:54:34.660Z,20.80
2018-08-20T04:57:19.401Z,20.80
2018-08-20T04:59:47.435Z,20.80
2018-08-20T05:02:15.295Z,20.80
2018-08-20T05:05:06.984Z,20.80
2018-08-20T05:07:38.537Z,20.80
2018-08-20T05:10:07.264Z,20.80
2018-08-20T05:12:35.226Z,20.80
2018-08-20T05:15:08.733Z,20.80
2018-08-20T05:17:36.911Z,20.70
2018-08-20T05:22:52.827Z,20.80
2018-08-20T05:25:20.613Z,20.80
2018-08-20T05:28:05.734Z,20.80
2018-08-20T05:33:21.843Z,20.90
2018-08-20T05:35:49.623Z,20.90
2018-08-20T05:38:18.142Z,20.90
2018-08-20T05:40:46.215Z,20.90
2018-08-20T05:43:13.931Z,20.90
2018-08-20T05:45:41.693Z,20.90
2018-08-20T05:48:09.588Z,21.00
2018-08-20T05:50:39.963Z,21.00
2018-08-20T05:53:09.479Z,21.00
2018-08-20T05:55:37.363Z,21.00
2018-08-20T05:58:05.161Z,21.00
2018-08-20T06:00:32.794Z,21.00
2018-08-20T06:03:01.675Z,21.00
2018-08-20T06:05:34.963Z,21.00
2018-08-20T06:08:05.152Z,21.00
2018-08-20T06:10:32.756Z,21.10
2018-08-20T06:13:00.479Z,21.10
2018-08-20T06:15:28.396Z,21.10
2018-08-20T06:18:08.832Z,21.10
2018-08-20T06:20:36.739Z,21.20
2018-08-20T06:23:10.823Z,21.20
2018-08-20T06:25:38.964Z,21.20
2018-08-20T06:28:24.720Z,21.30
2018-08-20T06:30:52.532Z,21.30
2018-08-20T06:33:20.329Z,21.30
2018-08-20T06:35:48.216Z,21.40
2018-08-20T06:41:19.007Z,21.50
2018-08-20T06:47:06.445Z,21.50
2018-08-20T06:59:09.634Z,21.60
2018-08-20T07:01:37.933Z,21.70
2018-08-20T07:04:24.915Z,21.80
2018-08-20T07:09:58.255Z,21.80
2018-08-20T07:12:26.538Z,21.90
2018-08-20T07:14:54.748Z,21.90
2018-08-20T07:17:23.310Z,22.00
2018-08-20T07:19:51.213Z,22.10
2018-08-20T07:25:41.428Z,22.10
2018-08-20T07:28:09.143Z,22.10
2018-08-20T07:30:36.843Z,22.10
2018-08-20T07:33:05.978Z,22.20
2018-08-20T07:35:33.765Z,22.20
2018-08-20T07:38:01.487Z,22.30
2018-08-20T07:40:29.374Z,22.30
2018-08-20T07:42:57.012Z,22.40
2018-08-20T07:45:24.687Z,22.40
2018-08-20T07:47:52.717Z,22.40
2018-08-20T07:50:20.668Z,22.50
2018-08-20T07:52:48.413Z,22.60
2018-08-20T07:55:16.092Z,22.70
2018-08-20T07:57:43.654Z,22.70
2018-08-20T08:00:11.455Z,22.80
2018-08-20T08:02:40.070Z,22.80
2018-08-20T08:05:09.462Z,22.80
2018-08-20T08:07:43.450Z,22.90
2018-08-20T08:10:13.979Z,22.90
2018-08-20T08:12:43.309Z,23.00
2018-08-20T08:15:17.779Z,23.00
2018-08-20T08:17:46.257Z,23.10
2018-08-20T08:20:14.786Z,23.10
2018-08-20T08:22:42.963Z,23.20
2018-08-20T08:25:11.218Z,23.20
2018-08-20T08:30:29.558Z,23.30
2018-08-20T08:32:57.234Z,23.30
2018-08-20T08:35:36.249Z,23.40
2018-08-20T08:38:05.194Z,23.50
2018-08-20T08:40:33.150Z,23.50
2018-08-20T08:43:01.033Z,23.60
2018-08-20T08:45:35.278Z,23.70
2018-08-20T08:48:09.422Z,23.70
2018-08-20T08:50:37.595Z,23.70
2018-08-20T08:53:12.280Z,23.70
2018-08-20T08:55:39.987Z,23.80
2018-08-20T08:58:09.451Z,23.80
2018-08-20T09:00:37.389Z,23.80
2018-08-20T09:03:05.530Z,23.80
2018-08-20T09:05:33.354Z,23.80
2018-08-20T09:08:01.047Z,23.80
2018-08-20T09:10:29.068Z,23.90
2018-08-20T09:12:56.711Z,23.90
2018-08-20T09:15:36.040Z,23.90
2018-08-20T09:18:03.864Z,24.00
2018-08-20T09:20:31.561Z,24.00
2018-08-20T09:23:00.446Z,24.00
2018-08-20T09:25:31.722Z,24.00
2018-08-20T09:27:59.437Z,24.10
2018-08-20T09:30:34.831Z,24.10
2018-08-20T09:33:02.795Z,24.10
2018-08-20T09:35:34.692Z,24.10
2018-08-20T09:38:02.379Z,24.10
2018-08-20T09:40:30.143Z,24.10
2018-08-20T09:42:57.759Z,24.20
2018-08-20T09:45:25.416Z,24.20
2018-08-20T09:47:54.159Z,24.20
2018-08-20T09:50:21.830Z,24.30
2018-08-20T09:52:49.592Z,24.30
2018-08-20T09:55:17.277Z,24.40
2018-08-20T09:57:44.981Z,24.40
2018-08-20T10:00:23.627Z,24.40
2018-08-20T10:02:52.272Z,24.50
2018-08-20T10:05:20.730Z,24.50
2018-08-20T10:07:48.763Z,24.60
2018-08-20T10:10:16.667Z,24.60
2018-08-20T10:12:45.071Z,24.70
2018-08-20T10:15:13.499Z,24.70
2018-08-20T10:17:41.587Z,24.70
2018-08-20T10:20:12.232Z,24.80
2018-08-20T10:22:58.647Z,24.80
2018-08-20T10:25:26.507Z,24.90
2018-08-20T10:27:54.481Z,24.90
2018-08-20T10:30:22.119Z,24.90
2018-08-20T10:32:49.796Z,24.90
2018-08-20T10:35:17.579Z,25.00
2018-08-20T10:40:18.837Z,25.10
2018-08-20T10:42:49.007Z,25.10
2018-08-20T10:45:17.953Z,25.20
2018-08-20T10:47:46.998Z,25.20
2018-08-20T10:50:22.442Z,25.20
2018-08-20T10:52:51.064Z,25.30
2018-08-20T10:57:58.057Z,25.40
2018-08-20T11:00:25.842Z,25.50
2018-08-20T11:02:56.149Z,25.50
2018-08-20T11:05:26.632Z,25.70
2018-08-20T11:07:54.394Z,25.60
2018-08-20T11:10:21.999Z,25.50
2018-08-20T11:12:50.118Z,25.50
2018-08-20T11:15:17.799Z,25.50
2018-08-20T11:17:45.396Z,25.40
2018-08-20T11:20:14.434Z,25.40
2018-08-20T11:22:42.176Z,25.40
2018-08-20T11:25:11.158Z,25.40
2018-08-20T11:27:39.053Z,25.30
2018-08-20T11:30:08.624Z,25.30
2018-08-20T11:32:36.313Z,25.30
2018-08-20T11:35:05.642Z,25.40
2018-08-20T11:37:33.576Z,25.40
2018-08-20T11:40:01.530Z,25.40
2018-08-20T11:42:32.162Z,25.50
2018-08-20T11:45:05.881Z,25.50
2018-08-20T11:47:33.624Z,25.50
2018-08-20T11:50:01.477Z,25.60
2018-08-20T11:52:29.333Z,25.60
2018-08-20T11:54:57.322Z,25.70
2018-08-20T11:57:25.039Z,25.70
2018-08-20T11:59:53.320Z,25.80
2018-08-20T12:02:21.317Z,25.90
2018-08-20T12:04:48.953Z,26.00
2018-08-20T12:07:17.321Z,26.00
2018-08-20T12:09:46.061Z,26.10
2018-08-20T12:12:13.722Z,26.10
2018-08-20T12:14:41.381Z,26.00
2018-08-20T12:17:09.574Z,26.10
2018-08-20T12:19:37.328Z,26.10
2018-08-20T12:22:05.475Z,26.20
2018-08-20T12:24:33.094Z,26.20
2018-08-20T12:27:02.665Z,26.20
2018-08-20T12:29:30.371Z,26.20
2018-08-20T12:31:58.526Z,26.10
2018-08-20T12:34:29.188Z,26.10
2018-08-20T12:36:56.854Z,26.20
2018-08-20T12:39:24.754Z,26.20
2018-08-20T12:41:53.171Z,26.40
2018-08-20T12:44:20.848Z,26.40
2018-08-20T12:46:48.490Z,26.50
2018-08-20T12:49:16.333Z,26.50
2018-08-20T12:51:43.916Z,26.60
2018-08-20T12:54:11.845Z,26.70
2018-08-20T12:56:39.646Z,26.70
2018-08-20T12:59:11.714Z,26.80
2018-08-20T13:01:39.461Z,26.80
2018-08-20T13:04:07.565Z,26.70
2018-08-20T13:06:35.388Z,26.70
2018-08-20T13:09:03.852Z,26.70
2018-08-20T13:11:31.644Z,26.70
2018-08-20T13:13:59.802Z,26.70
2018-08-20T13:16:27.376Z,26.70
2018-08-20T13:18:55.145Z,26.70
2018-08-20T13:21:23.005Z,26.70
2018-08-20T13:23:50.817Z,26.80
2018-08-20T13:26:19.132Z,26.80
2018-08-20T13:28:48.167Z,26.80
2018-08-20T13:31:16.469Z,26.80
2018-08-20T13:33:44.190Z,26.90
2018-08-20T13:36:11.941Z,26.80
2018-08-20T13:38:39.968Z,26.90
2018-08-20T13:41:08.383Z,26.80
2018-08-20T13:43:36.329Z,26.80
2018-08-20T13:46:04.314Z,26.80
2018-08-20T13:48:32.207Z,26.80
2018-08-20T13:50:59.912Z,26.80
2018-08-20T13:53:27.640Z,26.80
2018-08-20T13:55:55.420Z,26.90
2018-08-20T13:58:23.208Z,26.90
2018-08-20T14:00:50.996Z,26.90
2018-08-20T14:03:18.782Z,26.90
2018-08-20T14:05:46.647Z,27.00
2018-08-20T14:08:14.521Z,27.00
2018-08-20T14:10:48.251Z,27.10
2018-08-20T14:13:16.267Z,27.10
2018-08-20T14:15:44.531Z,27.10
2018-08-20T14:18:12.500Z,27.00
2018-08-20T14:20:50.401Z,27.00
2018-08-20T14:23:18.276Z,27.10
2018-08-20T14:25:45.957Z,27.10
2018-08-20T14:28:13.620Z,27.10
2018-08-20T14:30:41.304Z,27.10
2018-08-20T14:33:14.068Z,27.00
2018-08-20T14:35:42.167Z,27.10
2018-08-20T14:38:09.887Z,27.10
2018-08-20T14:40:37.909Z,27.10
2018-08-20T14:43:06.559Z,27.10
2018-08-20T14:45:39.743Z,27.20
2018-08-20T14:48:08.617Z,27.10
2018-08-20T14:50:40.443Z,27.10
2018-08-20T14:53:08.712Z,27.00
2018-08-20T14:55:36.519Z,27.10
2018-08-20T14:58:04.233Z,27.00
2018-08-20T15:00:32.174Z,27.10
2018-08-20T15:02:59.910Z,27.00
2018-08-20T15:05:27.829Z,27.10
2018-08-20T15:07:55.641Z,27.10
2018-08-20T15:10:23.640Z,27.10
2018-08-20T15:12:51.464Z,27.10
2018-08-20T15:15:21.613Z,27.20
2018-08-20T15:17:49.248Z,27.20
2018-08-20T15:20:16.922Z,27.20
2018-08-20T15:22:44.741Z,27.10
2018-08-20T15:25:12.855Z,27.10
2018-08-20T15:27:40.761Z,27.10
2018-08-20T15:30:08.964Z,27.10
2018-08-20T15:32:37.138Z,27.10
2018-08-20T15:35:05.331Z,27.10
2018-08-20T15:37:33.376Z,27.10
2018-08-20T15:40:01.090Z,27.10
2018-08-20T15:42:29.141Z,27.00
2018-08-20T15:44:56.695Z,27.00
2018-08-20T15:47:25.996Z,27.00
2018-08-20T15:49:53.912Z,26.90
2018-08-20T15:52:21.710Z,26.90
2018-08-20T15:54:49.408Z,26.90
2018-08-20T15:57:17.183Z,27.00
2018-08-20T15:59:46.100Z,26.90
2018-08-20T16:02:13.979Z,26.90
2018-08-20T16:04:41.731Z,26.90
2018-08-20T16:07:10.546Z,27.00
2018-08-20T16:09:38.168Z,27.00
2018-08-20T16:12:06.093Z,27.00
2018-08-20T16:14:33.988Z,27.00
2018-08-20T16:17:02.240Z,27.00
2018-08-20T16:19:29.900Z,27.00
2018-08-20T16:21:57.845Z,27.10
2018-08-20T16:24:25.725Z,27.10
2018-08-20T16:26:53.405Z,27.20
2018-08-20T16:29:21.850Z,27.30
2018-08-20T16:31:49.966Z,27.30
2018-08-20T16:34:17.656Z,27.40
2018-08-20T16:36:46.081Z,27.40
2018-08-20T16:41:56.265Z,27.50
2018-08-20T16:44:23.922Z,27.50
2018-08-20T16:46:51.806Z,27.40
2018-08-20T16:49:19.631Z,27.50
2018-08-20T16:51:48.439Z,27.40
2018-08-20T16:54:16.200Z,27.40
2018-08-20T16:56:43.885Z,27.40
2018-08-20T16:59:11.864Z,27.30
2018-08-20T17:01:39.583Z,27.40
2018-08-20T17:04:22.975Z,27.30
2018-08-20T17:06:50.677Z,27.30
2018-08-20T17:09:18.776Z,27.20
2018-08-20T17:11:46.389Z,27.20
2018-08-20T17:14:21.157Z,27.20
2018-08-20T17:16:49.695Z,27.20
2018-08-20T17:19:17.468Z,27.10
2018-08-20T17:21:45.174Z,27.20
2018-08-20T17:24:29.468Z,27.20
2018-08-20T17:27:00.551Z,27.20
2018-08-20T17:29:29.724Z,27.10
2018-08-20T17:31:57.531Z,27.10
2018-08-20T17:34:25.479Z,27.10
2018-08-20T17:36:53.509Z,27.00
2018-08-20T17:39:21.228Z,27.00
2018-08-20T17:41:49.376Z,27.00
2018-08-20T17:44:19.249Z,26.90
2018-08-20T17:46:46.944Z,26.90
2018-08-20T17:49:19.600Z,26.70
2018-08-20T17:51:48.958Z,26.80
2018-08-20T17:54:16.763Z,26.70
2018-08-20T17:56:45.750Z,26.60
2018-08-20T17:59:13.957Z,26.50
2018-08-20T18:01:41.898Z,26.50
2018-08-20T18:04:10.751Z,26.60
2018-08-20T18:06:49.085Z,26.40
2018-08-20T18:09:19.469Z,26.20
2018-08-20T18:11:48.928Z,26.10
2018-08-20T18:14:25.150Z,26.20
2018-08-20T18:16:53.004Z,26.20
2018-08-20T18:19:21.441Z,26.20
2018-08-20T18:21:50.106Z,26.10
2018-08-20T18:24:19.670Z,26.20
2018-08-20T18:26:51.059Z,26.10
2018-08-20T18:29:18.638Z,26.10
2018-08-20T18:31:52.800Z,26.10
2018-08-20T18:34:20.827Z,26.10
2018-08-20T18:36:48.534Z,26.10
2018-08-20T18:39:17.029Z,26.00
2018-08-20T18:42:04.021Z,26.10
2018-08-20T18:44:31.973Z,26.00
2018-08-20T18:46:59.690Z,26.00
2018-08-20T18:49:27.384Z,25.90
2018-08-20T18:52:02.722Z,25.90
2018-08-20T18:54:55.695Z,25.90
2018-08-20T18:57:26.027Z,25.90
2018-08-20T18:59:57.901Z,25.90
2018-08-20T19:02:50.060Z,25.80
2018-08-20T19:05:18.708Z,25.80
2018-08-20T19:07:49.843Z,25.80
2018-08-20T19:10:24.204Z,25.70
2018-08-20T19:12:52.020Z,25.70
2018-08-20T19:15:30.708Z,25.70
2018-08-20T19:17:58.595Z,25.70
2018-08-20T19:20:27.566Z,25.70
2018-08-20T19:22:55.724Z,25.70
2018-08-20T19:25:24.087Z,25.60
2018-08-20T19:27:51.894Z,25.60
2018-08-20T19:30:25.463Z,25.60
2018-08-20T19:32:53.258Z,25.60
2018-08-20T19:35:21.023Z,25.60
2018-08-20T19:37:48.899Z,25.50
2018-08-20T19:40:18.687Z,25.50
2018-08-20T19:42:50.999Z,25.50
2018-08-20T19:45:19.454Z,25.50
2018-08-20T19:47:47.981Z,25.40
2018-08-20T19:50:15.803Z,25.40
2018-08-20T19:52:43.794Z,25.40
2018-08-20T19:55:12.471Z,25.40
2018-08-20T19:57:40.166Z,25.40
2018-08-20T20:00:10.600Z,25.40
2018-08-20T20:02:42.571Z,25.30
2018-08-20T20:05:13.837Z,25.30
2018-08-20T20:07:54.879Z,25.30
2018-08-20T20:10:22.616Z,25.30
2018-08-20T20:12:52.510Z,25.20
2018-08-20T20:15:20.423Z,25.20
2018-08-20T20:17:49.228Z,25.20
2018-08-20T20:20:16.900Z,25.20
2018-08-20T20:22:44.747Z,25.20
2018-08-20T20:25:12.528Z,25.20
2018-08-20T20:27:41.267Z,25.20
2018-08-20T20:30:09.364Z,25.20
2018-08-20T20:32:37.622Z,25.20
2018-08-20T20:35:10.346Z,25.20
2018-08-20T20:37:38.350Z,25.10
2018-08-20T20:40:31.727Z,25.00
2018-08-20T20:42:59.533Z,25.00
2018-08-20T20:45:28.013Z,25.00
2018-08-20T20:47:56.020Z,25.00
2018-08-20T20:50:23.956Z,25.00
2018-08-20T20:52:52.019Z,25.00
2018-08-20T20:55:19.932Z,24.90
2018-08-20T20:57:47.858Z,24.90
2018-08-20T21:00:15.564Z,24.90
2018-08-20T21:02:45.737Z,24.90
2018-08-20T21:05:13.671Z,24.90
2018-08-20T21:07:41.386Z,24.90
2018-08-20T21:10:09.605Z,24.90
2018-08-20T21:12:50.066Z,24.90
2018-08-20T21:15:17.808Z,24.90
2018-08-20T21:17:45.655Z,24.80
2018-08-20T21:20:17.333Z,24.80
2018-08-20T21:22:45.411Z,24.80
2018-08-20T21:25:13.247Z,24.80
2018-08-20T21:27:41.096Z,24.80
2018-08-20T21:30:10.391Z,24.80
2018-08-20T21:32:51.220Z,24.70
2018-08-20T21:35:22.011Z,24.70
2018-08-20T21:37:49.939Z,24.70
2018-08-20T21:40:28.283Z,24.70
2018-08-20T21:43:04.137Z,24.70
2018-08-20T21:51:34.322Z,24.60
2018-08-20T21:54:03.050Z,24.60
2018-08-20T21:56:41.892Z,24.50
2018-08-20T21:59:12.037Z,24.50
2018-08-20T22:01:40.096Z,24.50
2018-08-20T22:04:13.546Z,24.50
2018-08-20T22:06:42.988Z,24.50
2018-08-20T22:09:10.800Z,24.50
2018-08-20T22:11:40.060Z,24.50
2018-08-20T22:14:12.462Z,24.40
2018-08-20T22:16:40.326Z,24.40
2018-08-20T22:19:08.126Z,24.40
2018-08-20T22:21:35.968Z,24.40
2018-08-20T22:24:22.069Z,24.40
2018-08-20T22:26:56.302Z,24.40
2018-08-20T22:29:39.684Z,24.40
2018-08-20T22:32:08.302Z,24.40
2018-08-20T22:34:36.493Z,24.40
2018-08-20T22:37:06.057Z,24.40
2018-08-20T22:39:34.076Z,24.40
2018-08-20T22:42:01.935Z,24.40
2018-08-20T22:44:30.947Z,24.40
2018-08-20T22:47:02.190Z,24.40
2018-08-20T22:49:32.417Z,24.40
2018-08-20T22:52:00.324Z,24.40
2018-08-20T22:54:34.540Z,24.40
2018-08-20T22:57:02.604Z,24.40
2018-08-20T22:59:32.200Z,24.40
2018-08-20T23:02:00.176Z,24.40
2018-08-20T23:04:28.813Z,24.40
2018-08-20T23:07:00.346Z,24.40
2018-08-20T23:09:32.932Z,24.40
2018-08-20T23:12:02.118Z,24.30
2018-08-20T23:14:29.891Z,24.30
2018-08-20T23:17:01.050Z,24.30
2018-08-20T23:19:31.284Z,24.20
2018-08-20T23:21:59.503Z,24.30
2018-08-20T23:24:31.624Z,24.30
2018-08-20T23:27:01.474Z,24.20
2018-08-20T23:29:29.547Z,24.30
2018-08-20T23:32:00.906Z,24.30
2018-08-20T23:34:33.065Z,24.20
2018-08-20T23:37:01.567Z,24.20
2018-08-20T23:39:30.745Z,24.20
2018-08-20T23:41:58.587Z,24.10
2018-08-20T23:44:27.162Z,24.20
2018-08-20T23:46:55.359Z,24.20
2018-08-20T23:49:33.790Z,24.20
2018-08-20T23:52:03.025Z,24.20
2018-08-20T23:57:29.441Z,24.10
2018-08-20T23:59:58.215Z,24.20
